Time;durP1;ratioP1;P1;durP2;ratioP2;P2;SDS_P1;SDS_P2;PMS_P1;PMS_P2;Temp;Humidity;BMP_temperature;BMP_pressure;BME280_temperature;BME280_humidity;BME280_pressure;Samples;Min_cycle;Max_cycle;Signal;HPM_P1;HPM_P2
2021/08/04 00:00:29;;;;;;;1.40;0.82;;;;;;;;;;5022153;28;20115;-73
2021/08/04 00:02:56;;;;;;;1.00;0.70;;;;;;;;;;5023781;28;20053;-73
2021/08/04 00:05:22;;;;;;;1.58;1.00;;;;;;;;;;5015136;28;20512;-73
2021/08/04 00:07:49;;;;;;;3.60;1.20;;;;;;;;;;5017654;28;20042;-73
2021/08/04 00:10:16;;;;;;;1.83;0.93;;;;;;;;;;5050396;28;20115;-73
2021/08/04 00:12:42;;;;;;;2.70;0.95;;;;;;;;;;5017621;28;20487;-73
2021/08/04 00:15:09;;;;;;;1.33;0.65;;;;;;;;;;5022903;28;20053;-73
2021/08/04 00:17:36;;;;;;;2.00;0.88;;;;;;;;;;5021515;28;20061;-73
2021/08/04 00:20:03;;;;;;;1.98;1.00;;;;;;;;;;5015346;28;20049;-73
2021/08/04 00:22:29;;;;;;;1.30;0.85;;;;;;;;;;5023294;28;20065;-73
2021/08/04 00:24:56;;;;;;;1.77;0.80;;;;;;;;;;5018363;28;20068;-73
2021/08/04 00:27:24;;;;;;;2.70;0.88;;;;;;;;;;5017196;28;20472;-74
2021/08/04 00:29:50;;;;;;;2.20;0.80;;;;;;;;;;5023165;28;20133;-73
2021/08/04 00:32:16;;;;;;;1.63;0.90;;;;;;;;;;5020604;28;20061;-73
2021/08/04 00:34:43;;;;;;;2.53;1.02;;;;;;;;;;5023537;28;20489;-73
2021/08/04 00:37:09;;;;;;;1.20;0.70;;;;;;;;;;5022241;28;20556;-73
2021/08/04 00:39:36;;;;;;;2.75;0.90;;;;;;;;;;5021300;28;20065;-73
2021/08/04 00:42:02;;;;;;;2.30;0.82;;;;;;;;;;5025879;28;20107;-73
2021/08/04 00:44:29;;;;;;;2.75;0.90;;;;;;;;;;5056825;28;20080;-73
2021/08/04 00:46:55;;;;;;;1.38;0.70;;;;;;;;;;5022093;28;20042;-74
2021/08/04 00:49:22;;;;;;;1.13;0.80;;;;;;;;;;5025944;28;20065;-74
2021/08/04 00:51:48;;;;;;;2.95;0.75;;;;;;;;;;5023919;28;20065;-74
2021/08/04 00:54:14;;;;;;;1.67;0.90;;;;;;;;;;5026560;28;20065;-74
2021/08/04 00:56:41;;;;;;;1.58;0.80;;;;;;;;;;5032670;28;20065;-73
2021/08/04 00:59:08;;;;;;;1.77;0.80;;;;;;;;;;5022652;28;20057;-74
2021/08/04 01:01:36;;;;;;;1.02;0.60;;;;;;;;;;5022374;28;20065;-74
2021/08/04 01:04:11;;;;;;;1.52;0.80;;;;;;;;;;5019993;28;20061;-74
2021/08/04 01:06:43;;;;;;;1.27;0.63;;;;;;;;;;5026635;28;20060;-74
2021/08/04 01:09:11;;;;;;;0.85;0.68;;;;;;;;;;5025622;28;20069;-75
2021/08/04 01:11:40;;;;;;;1.05;0.65;;;;;;;;;;5025834;28;20049;-73
2021/08/04 01:14:11;;;;;;;1.35;0.70;;;;;;;;;;5023406;28;20708;-74
2021/08/04 01:16:39;;;;;;;1.67;0.68;;;;;;;;;;5021128;28;20064;-74
2021/08/04 01:19:06;;;;;;;1.48;0.70;;;;;;;;;;5014678;28;20114;-74
2021/08/04 01:21:36;;;;;;;1.75;0.70;;;;;;;;;;5024772;28;20037;-74
2021/08/04 01:24:11;;;;;;;2.80;0.90;;;;;;;;;;5021509;28;20497;-74
2021/08/04 01:26:41;;;;;;;1.23;0.70;;;;;;;;;;5057265;28;20148;-74
2021/08/04 01:29:09;;;;;;;1.02;0.60;;;;;;;;;;5025910;28;20065;-74
2021/08/04 01:31:37;;;;;;;2.20;0.75;;;;;;;;;;5022407;28;20064;-74
2021/08/04 01:34:03;;;;;;;1.33;0.70;;;;;;;;;;5026512;28;20065;-74
2021/08/04 01:36:30;;;;;;;2.15;1.08;;;;;;;;;;5025308;28;20068;-74
2021/08/04 01:38:59;;;;;;;1.40;0.70;;;;;;;;;;5025891;28;20075;-74
2021/08/04 01:41:27;;;;;;;1.75;0.65;;;;;;;;;;5026127;28;20061;-74
2021/08/04 01:43:54;;;;;;;1.08;0.60;;;;;;;;;;5025583;28;20131;-74
2021/08/04 01:46:22;;;;;;;2.60;0.88;;;;;;;;;;5023195;28;20214;-75
2021/08/04 01:48:49;;;;;;;1.48;0.70;;;;;;;;;;5026596;28;20060;-74
2021/08/04 01:51:18;;;;;;;1.30;0.73;;;;;;;;;;5025744;28;20749;-74
2021/08/04 01:53:46;;;;;;;1.23;0.80;;;;;;;;;;5052001;28;20049;-74
2021/08/04 01:56:14;;;;;;;2.25;0.70;;;;;;;;;;5024510;28;20057;-73
2021/08/04 01:58:41;;;;;;;0.93;0.55;;;;;;;;;;5025362;28;20473;-74
2021/08/04 02:01:08;;;;;;;1.20;0.60;;;;;;;;;;5025338;28;20060;-74
2021/08/04 02:03:34;;;;;;;1.00;0.77;;;;;;;;;;5053137;28;20131;-75
2021/08/04 02:06:09;;;;;;;1.90;0.88;;;;;;;;;;5025214;28;20477;-74
2021/08/04 02:08:38;;;;;;;2.05;0.80;;;;;;;;;;5022170;28;20567;-74
2021/08/04 02:11:08;;;;;;;1.55;0.95;;;;;;;;;;5021258;28;20061;-73
2021/08/04 02:13:37;;;;;;;2.00;0.63;;;;;;;;;;5024239;28;20115;-73
2021/08/04 02:16:18;;;;;;;1.25;0.60;;;;;;;;;;5019105;28;20806;-73
2021/08/04 02:18:46;;;;;;;2.05;0.70;;;;;;;;;;5015100;28;21708;-73
2021/08/04 02:21:14;;;;;;;2.38;0.80;;;;;;;;;;5026580;28;20099;-73
2021/08/04 02:23:40;;;;;;;1.55;0.73;;;;;;;;;;5024227;28;20060;-73
2021/08/04 02:26:06;;;;;;;0.60;0.50;;;;;;;;;;5018641;28;20077;-74
2021/08/04 02:28:34;;;;;;;1.50;0.90;;;;;;;;;;5021379;28;20049;-73
2021/08/04 02:31:02;;;;;;;4.15;0.80;;;;;;;;;;5022830;28;20497;-74
2021/08/04 02:33:29;;;;;;;1.33;0.88;;;;;;;;;;5023449;28;20118;-74
2021/08/04 02:35:56;;;;;;;2.63;0.95;;;;;;;;;;5022318;28;20057;-73
2021/08/04 02:38:23;;;;;;;1.58;0.70;;;;;;;;;;5012898;28;20434;-74
2021/08/04 02:40:49;;;;;;;0.95;0.68;;;;;;;;;;5023533;28;20060;-74
2021/08/04 02:43:17;;;;;;;2.03;0.88;;;;;;;;;;5024231;28;20119;-74
2021/08/04 02:45:44;;;;;;;1.38;0.60;;;;;;;;;;5019949;28;20513;-74
2021/08/04 02:48:12;;;;;;;1.60;0.70;;;;;;;;;;5024201;28;20057;-74
2021/08/04 02:50:38;;;;;;;1.55;0.70;;;;;;;;;;5019290;28;20095;-74
2021/08/04 02:53:05;;;;;;;1.15;0.75;;;;;;;;;;5022192;28;20128;-73
2021/08/04 02:55:31;;;;;;;1.35;0.80;;;;;;;;;;5023413;28;20096;-73
2021/08/04 02:57:58;;;;;;;1.52;0.70;;;;;;;;;;5024844;28;20057;-73
2021/08/04 03:00:24;;;;;;;1.27;0.70;;;;;;;;;;5023059;28;20057;-73
2021/08/04 03:02:50;;;;;;;1.58;0.82;;;;;;;;;;5051859;28;20049;-72
2021/08/04 03:05:17;;;;;;;1.75;0.88;;;;;;;;;;5022936;28;20072;-74
2021/08/04 03:07:43;;;;;;;2.22;0.70;;;;;;;;;;5023759;28;20037;-73
2021/08/04 03:10:10;;;;;;;2.20;0.65;;;;;;;;;;5021881;28;20064;-72
2021/08/04 03:12:37;;;;;;;1.60;0.60;;;;;;;;;;5021727;28;20065;-72
2021/08/04 03:15:03;;;;;;;2.42;0.80;;;;;;;;;;5015687;28;20057;-73
2021/08/04 03:17:29;;;;;;;1.48;0.80;;;;;;;;;;5023456;28;20516;-74
2021/08/04 03:19:56;;;;;;;2.53;0.80;;;;;;;;;;5020746;28;20076;-73
2021/08/04 03:22:22;;;;;;;1.30;0.60;;;;;;;;;;5023164;28;20072;-74
2021/08/04 03:24:48;;;;;;;1.90;0.77;;;;;;;;;;5019558;28;20141;-73
2021/08/04 03:27:15;;;;;;;1.60;0.60;;;;;;;;;;5021310;28;20053;-73
2021/08/04 03:29:41;;;;;;;1.10;0.57;;;;;;;;;;5022538;28;20061;-74
2021/08/04 03:32:08;;;;;;;1.83;0.80;;;;;;;;;;5041711;28;20061;-74
2021/08/04 03:34:34;;;;;;;1.60;0.80;;;;;;;;;;5021418;28;20061;-75
2021/08/04 03:37:00;;;;;;;1.25;0.82;;;;;;;;;;5018625;28;20417;-73
2021/08/04 03:39:27;;;;;;;2.95;0.77;;;;;;;;;;5021337;28;20068;-73
2021/08/04 03:41:53;;;;;;;2.65;0.85;;;;;;;;;;5018781;28;21692;-73
2021/08/04 03:44:20;;;;;;;1.58;0.73;;;;;;;;;;5025127;28;20575;-73
2021/08/04 03:46:47;;;;;;;1.05;0.80;;;;;;;;;;5023805;28;20652;-73
2021/08/04 03:49:15;;;;;;;1.85;0.75;;;;;;;;;;5023027;28;20084;-74
2021/08/04 03:51:41;;;;;;;1.90;0.70;;;;;;;;;;5023586;28;20057;-74
2021/08/04 03:54:08;;;;;;;1.52;0.80;;;;;;;;;;5023647;28;20053;-73
2021/08/04 03:56:34;;;;;;;1.95;0.80;;;;;;;;;;5022376;28;20454;-73
2021/08/04 03:59:01;;;;;;;1.33;0.70;;;;;;;;;;5016814;28;20168;-73
2021/08/04 04:01:27;;;;;;;1.35;0.70;;;;;;;;;;5020794;28;20074;-73
2021/08/04 04:03:54;;;;;;;1.00;0.55;;;;;;;;;;5023446;28;20076;-73
2021/08/04 04:06:20;;;;;;;1.67;0.80;;;;;;;;;;5022885;28;20057;-73
2021/08/04 04:08:46;;;;;;;1.58;0.60;;;;;;;;;;5023179;28;20057;-73
2021/08/04 04:11:13;;;;;;;1.15;0.68;;;;;;;;;;5023753;28;20069;-73
2021/08/04 04:13:39;;;;;;;1.58;0.80;;;;;;;;;;5022525;28;20061;-73
2021/08/04 04:16:06;;;;;;;1.48;0.63;;;;;;;;;;5022539;28;20065;-74
2021/08/04 04:18:36;;;;;;;1.42;0.68;;;;;;;;;;5024378;28;20041;-73
2021/08/04 04:21:02;;;;;;;1.13;0.70;;;;;;;;;;5026918;28;20061;-73
2021/08/04 04:23:28;;;;;;;1.52;0.70;;;;;;;;;;5026383;28;20777;-73
2021/08/04 04:25:55;;;;;;;1.00;0.50;;;;;;;;;;5027459;28;20064;-74
2021/08/04 04:28:21;;;;;;;0.73;0.50;;;;;;;;;;5027635;28;20065;-75
2021/08/04 04:30:47;;;;;;;2.75;0.88;;;;;;;;;;5026483;28;20080;-74
2021/08/04 04:33:14;;;;;;;1.60;0.63;;;;;;;;;;5026882;28;20118;-74
2021/08/04 04:35:40;;;;;;;2.13;0.60;;;;;;;;;;5018110;28;20072;-74
2021/08/04 04:38:07;;;;;;;1.73;0.70;;;;;;;;;;5025185;28;20064;-74
2021/08/04 04:40:33;;;;;;;1.02;0.50;;;;;;;;;;5025289;28;20057;-74
2021/08/04 04:42:59;;;;;;;0.70;0.50;;;;;;;;;;5027256;28;20681;-73
2021/08/04 04:45:26;;;;;;;1.80;0.80;;;;;;;;;;5025280;28;20080;-74
2021/08/04 04:47:52;;;;;;;1.48;0.60;;;;;;;;;;5026696;28;20069;-73
2021/08/04 04:50:19;;;;;;;1.50;0.68;;;;;;;;;;5025372;28;20092;-75
2021/08/04 04:52:45;;;;;;;1.50;0.80;;;;;;;;;;5024874;28;20748;-74
2021/08/04 04:55:12;;;;;;;1.55;0.55;;;;;;;;;;5024988;28;20584;-75
2021/08/04 04:57:39;;;;;;;1.02;0.70;;;;;;;;;;5025837;28;20072;-74
2021/08/04 05:00:06;;;;;;;1.42;1.00;;;;;;;;;;5024671;28;20064;-74
2021/08/04 05:02:33;;;;;;;1.23;0.57;;;;;;;;;;5025913;28;20064;-73
2021/08/04 05:04:59;;;;;;;1.42;0.60;;;;;;;;;;5025828;28;20068;-73
2021/08/04 05:07:25;;;;;;;1.83;0.73;;;;;;;;;;5026081;28;20072;-73
2021/08/04 05:09:52;;;;;;;4.68;0.82;;;;;;;;;;5015950;28;20069;-75
2021/08/04 05:12:18;;;;;;;1.95;0.70;;;;;;;;;;5020423;28;20065;-74
2021/08/04 05:14:45;;;;;;;0.68;0.57;;;;;;;;;;5026777;28;20076;-76
2021/08/04 05:17:13;;;;;;;1.52;0.70;;;;;;;;;;5025675;28;20061;-74
2021/08/04 05:19:39;;;;;;;1.98;1.05;;;;;;;;;;5023052;28;20089;-74
2021/08/04 05:22:06;;;;;;;2.30;0.70;;;;;;;;;;5024431;28;20580;-75
2021/08/04 05:24:32;;;;;;;1.90;0.70;;;;;;;;;;5024770;28;20123;-75
2021/08/04 05:26:59;;;;;;;2.50;0.95;;;;;;;;;;5025784;28;20065;-73
2021/08/04 05:29:25;;;;;;;1.67;0.88;;;;;;;;;;5023166;28;20123;-74
2021/08/04 05:31:52;;;;;;;1.65;0.65;;;;;;;;;;5024006;28;20477;-74
2021/08/04 05:34:18;;;;;;;2.95;0.70;;;;;;;;;;5021761;28;20061;-75
2021/08/04 05:36:45;;;;;;;1.67;0.80;;;;;;;;;;5024626;28;20603;-74
2021/08/04 05:39:11;;;;;;;3.05;0.93;;;;;;;;;;5024387;28;20182;-73
2021/08/04 05:41:39;;;;;;;2.13;0.77;;;;;;;;;;5023299;28;20038;-73
2021/08/04 05:44:06;;;;;;;1.52;0.70;;;;;;;;;;5027306;28;20147;-74
2021/08/04 05:46:32;;;;;;;2.05;0.60;;;;;;;;;;5024376;28;20072;-74
2021/08/04 05:48:58;;;;;;;1.90;0.70;;;;;;;;;;5025469;28;20061;-73
2021/08/04 05:51:25;;;;;;;1.17;0.88;;;;;;;;;;5022858;28;20077;-74
2021/08/04 05:53:51;;;;;;;2.85;0.80;;;;;;;;;;5025136;28;20130;-74
2021/08/04 05:56:17;;;;;;;1.58;0.65;;;;;;;;;;5025101;28;20068;-75
2021/08/04 05:58:44;;;;;;;2.53;0.93;;;;;;;;;;5024449;28;20352;-74
2021/08/04 06:01:10;;;;;;;1.80;0.70;;;;;;;;;;5023995;28;20497;-73
2021/08/04 06:03:37;;;;;;;1.80;0.90;;;;;;;;;;5024157;28;20060;-73
2021/08/04 06:06:04;;;;;;;3.15;0.93;;;;;;;;;;5022249;28;20064;-73
2021/08/04 06:08:30;;;;;;;2.28;0.88;;;;;;;;;;5023045;28;20060;-74
2021/08/04 06:10:57;;;;;;;1.75;0.70;;;;;;;;;;5054378;28;20087;-73
2021/08/04 06:13:24;;;;;;;1.25;0.82;;;;;;;;;;5023949;28;20057;-74
2021/08/04 06:15:53;;;;;;;1.65;0.80;;;;;;;;;;5024084;28;20098;-73
2021/08/04 06:18:19;;;;;;;2.00;0.70;;;;;;;;;;5016309;28;20064;-74
2021/08/04 06:20:46;;;;;;;1.20;0.70;;;;;;;;;;5024581;28;20131;-74
2021/08/04 06:23:12;;;;;;;3.25;0.75;;;;;;;;;;5025842;28;20049;-74
2021/08/04 06:25:39;;;;;;;0.80;0.70;;;;;;;;;;5019512;28;20061;-75
2021/08/04 06:28:05;;;;;;;1.33;0.75;;;;;;;;;;5023455;28;20053;-74
2021/08/04 06:30:32;;;;;;;1.17;0.75;;;;;;;;;;5022701;28;20081;-74
2021/08/04 06:32:58;;;;;;;1.63;0.68;;;;;;;;;;5022779;28;20068;-73
2021/08/04 06:35:24;;;;;;;1.40;0.80;;;;;;;;;;5021915;28;20068;-76
2021/08/04 06:37:52;;;;;;;1.50;0.77;;;;;;;;;;5024508;28;20060;-75
2021/08/04 06:40:18;;;;;;;2.22;0.60;;;;;;;;;;5020541;28;20061;-76
2021/08/04 06:42:45;;;;;;;2.72;0.90;;;;;;;;;;5022157;28;20057;-76
2021/08/04 06:45:11;;;;;;;3.03;1.20;;;;;;;;;;5023124;28;20470;-75
2021/08/04 06:47:43;;;;;;;1.88;1.08;;;;;;;;;;5023477;28;20088;-76
2021/08/04 06:50:10;;;;;;;5.13;1.20;;;;;;;;;;5020979;28;20057;-75
2021/08/04 06:52:36;;;;;;;2.97;1.17;;;;;;;;;;5022947;28;20061;-76
2021/08/04 06:55:03;;;;;;;2.28;1.00;;;;;;;;;;5025158;28;20514;-77
2021/08/04 06:57:30;;;;;;;2.70;1.02;;;;;;;;;;5021694;28;20072;-76
2021/08/04 06:59:56;;;;;;;3.35;1.50;;;;;;;;;;5014474;28;20434;-80
2021/08/04 07:02:22;;;;;;;4.45;1.20;;;;;;;;;;5022564;28;20143;-79
2021/08/04 07:04:49;;;;;;;3.22;1.13;;;;;;;;;;5023326;28;20060;-77
2021/08/04 07:07:16;;;;;;;2.10;1.00;;;;;;;;;;5020160;28;20112;-76
2021/08/04 07:09:42;;;;;;;2.50;1.20;;;;;;;;;;5021512;28;20111;-74
2021/08/04 07:12:10;;;;;;;5.53;1.10;;;;;;;;;;5023194;28;20057;-73
2021/08/04 07:14:38;;;;;;;2.80;1.45;;;;;;;;;;5022514;28;20645;-73
2021/08/04 07:17:05;;;;;;;3.83;1.10;;;;;;;;;;5010194;28;20057;-73
2021/08/04 07:19:32;;;;;;;3.35;1.20;;;;;;;;;;5022808;28;20077;-73
2021/08/04 07:21:58;;;;;;;8.25;1.70;;;;;;;;;;5019310;28;20145;-74
2021/08/04 07:24:24;;;;;;;5.25;1.33;;;;;;;;;;5020828;28;20493;-74
2021/08/04 07:26:51;;;;;;;2.97;1.20;;;;;;;;;;5020745;28;20037;-75
2021/08/04 07:29:17;;;;;;;3.90;1.35;;;;;;;;;;5022304;28;20115;-74
2021/08/04 07:31:46;;;;;;;3.67;1.17;;;;;;;;;;5022435;28;20497;-76
2021/08/04 07:34:15;;;;;;;2.67;1.00;;;;;;;;;;5020681;28;20053;-72
2021/08/04 07:36:42;;;;;;;3.75;1.30;;;;;;;;;;5021474;28;20061;-75
2021/08/04 07:39:09;;;;;;;4.40;1.33;;;;;;;;;;5023427;28;20072;-75
2021/08/04 07:41:35;;;;;;;3.63;1.15;;;;;;;;;;5018824;28;20107;-75
2021/08/04 07:44:01;;;;;;;3.28;1.05;;;;;;;;;;5020579;28;20065;-76
2021/08/04 07:46:28;;;;;;;7.38;1.42;;;;;;;;;;5018965;28;20061;-70
2021/08/04 07:48:54;;;;;;;3.22;0.98;;;;;;;;;;5021112;28;20064;-72
2021/08/04 07:51:20;;;;;;;2.72;1.27;;;;;;;;;;5021992;28;20073;-74
2021/08/04 07:53:47;;;;;;;5.25;1.08;;;;;;;;;;5055062;28;20507;-74
2021/08/04 07:56:19;;;;;;;2.88;1.20;;;;;;;;;;5023870;28;20160;-74
2021/08/04 07:58:46;;;;;;;2.03;1.10;;;;;;;;;;5022986;28;21863;-73
2021/08/04 08:01:13;;;;;;;4.78;1.15;;;;;;;;;;5023309;28;20091;-74
2021/08/04 08:03:39;;;;;;;4.55;1.13;;;;;;;;;;5021351;28;20501;-73
2021/08/04 08:06:06;;;;;;;4.32;1.20;;;;;;;;;;5023312;28;20061;-72
2021/08/04 08:08:32;;;;;;;2.15;1.08;;;;;;;;;;5021205;28;20060;-73
2021/08/04 08:10:58;;;;;;;2.45;1.25;;;;;;;;;;5019888;28;20069;-73
2021/08/04 08:13:25;;;;;;;2.30;1.10;;;;;;;;;;5019956;28;20068;-73
2021/08/04 08:15:52;;;;;;;3.58;1.17;;;;;;;;;;5021978;28;20053;-73
2021/08/04 08:18:19;;;;;;;2.22;0.90;;;;;;;;;;5010571;28;20065;-74
2021/08/04 08:20:45;;;;;;;6.13;1.20;;;;;;;;;;5022367;28;20072;-73
2021/08/04 08:23:12;;;;;;;3.83;1.35;;;;;;;;;;5010570;28;20470;-73
2021/08/04 08:25:39;;;;;;;2.25;1.00;;;;;;;;;;5016334;28;20061;-73
2021/08/04 08:28:06;;;;;;;3.35;1.17;;;;;;;;;;5022104;28;20065;-74
2021/08/04 08:30:33;;;;;;;2.38;1.10;;;;;;;;;;5021533;28;20123;-74
2021/08/04 08:32:59;;;;;;;3.42;1.10;;;;;;;;;;5022445;28;20094;-73
2021/08/04 08:35:26;;;;;;;3.30;1.02;;;;;;;;;;5022768;28;20114;-74
2021/08/04 08:37:52;;;;;;;2.22;0.95;;;;;;;;;;5016177;28;20068;-74
2021/08/04 08:40:19;;;;;;;2.45;1.13;;;;;;;;;;5019901;28;20537;-74
2021/08/04 08:42:45;;;;;;;4.72;1.20;;;;;;;;;;5023801;28;20518;-74
2021/08/04 08:45:12;;;;;;;3.38;1.08;;;;;;;;;;5023298;28;20061;-73
2021/08/04 08:47:40;;;;;;;0.95;0.80;;;;;;;;;;5013350;28;20588;-73
2021/08/04 08:50:07;;;;;;;3.42;1.20;;;;;;;;;;5017953;28;20061;-73
2021/08/04 08:52:33;;;;;;;3.58;1.20;;;;;;;;;;5020688;28;20068;-73
2021/08/04 08:55:04;;;;;;;1.92;1.00;;;;;;;;;;5021409;28;20072;-73
2021/08/04 08:57:31;;;;;;;1.93;0.93;;;;;;;;;;5019678;28;20065;-74
2021/08/04 08:59:58;;;;;;;3.35;1.20;;;;;;;;;;5021339;28;20474;-72
2021/08/04 09:02:28;;;;;;;1.75;1.10;;;;;;;;;;5021912;28;20127;-73
2021/08/04 09:05:05;;;;;;;2.43;1.00;;;;;;;;;;5022283;28;20068;-73
2021/08/04 09:07:35;;;;;;;3.13;1.20;;;;;;;;;;5055854;28;20060;-73
2021/08/04 09:10:19;;;;;;;2.47;1.10;;;;;;;;;;5022611;28;20033;-74
2021/08/04 09:12:50;;;;;;;3.55;1.20;;;;;;;;;;5021492;28;21118;-73
2021/08/04 09:15:27;;;;;;;1.80;0.90;;;;;;;;;;5004200;28;20084;-74
2021/08/04 09:18:01;;;;;;;2.55;1.25;;;;;;;;;;5021908;28;20668;-73
2021/08/04 09:20:27;;;;;;;4.10;1.38;;;;;;;;;;5024628;28;20473;-72
2021/08/04 09:23:01;;;;;;;3.70;1.20;;;;;;;;;;5016011;28;20061;-73
2021/08/04 09:25:27;;;;;;;2.20;1.38;;;;;;;;;;5031959;28;20506;-73
2021/08/04 09:27:56;;;;;;;1.92;1.23;;;;;;;;;;5023210;28;20615;-73
2021/08/04 09:30:42;;;;;;;3.60;1.10;;;;;;;;;;5018194;28;20072;-73
2021/08/04 09:33:17;;;;;;;4.68;1.30;;;;;;;;;;5023664;28;20057;-73
2021/08/04 09:35:51;;;;;;;2.58;1.60;;;;;;;;;;5020331;28;20722;-73
2021/08/04 09:38:21;;;;;;;3.83;1.30;;;;;;;;;;5025788;28;20507;-74
2021/08/04 09:41:06;;;;;;;2.70;1.20;;;;;;;;;;5023270;28;20276;-73
2021/08/04 09:43:32;;;;;;;3.13;1.40;;;;;;;;;;5024522;28;20699;-73
2021/08/04 09:45:59;;;;;;;2.72;1.20;;;;;;;;;;5042620;28;20144;-71
2021/08/04 09:48:26;;;;;;;4.38;1.75;;;;;;;;;;5024714;28;20054;-73
2021/08/04 09:50:57;;;;;;;2.45;1.20;;;;;;;;;;5022665;28;20081;-72
2021/08/04 09:53:24;;;;;;;;;;;;;;;;;;5024419;28;20057;-73
2021/08/04 09:56:07;;;;;;;3.60;1.30;;;;;;;;;;5026428;28;19964;-73
2021/08/04 09:58:34;;;;;;;2.72;1.48;;;;;;;;;;5020717;28;20539;-75
2021/08/04 10:01:04;;;;;;;3.10;1.33;;;;;;;;;;5025420;28;20057;-72
2021/08/04 10:03:32;;;;;;;2.65;1.23;;;;;;;;;;5023756;28;20127;-73
2021/08/04 10:05:58;;;;;;;3.83;1.92;;;;;;;;;;5024966;28;20088;-73
2021/08/04 10:08:24;;;;;;;3.97;1.52;;;;;;;;;;5025102;28;20092;-72
2021/08/04 10:10:55;;;;;;;2.35;1.30;;;;;;;;;;5027107;28;20060;-72
2021/08/04 10:13:26;;;;;;;1.65;1.17;;;;;;;;;;5025488;28;20126;-72
2021/08/04 10:15:54;;;;;;;4.40;1.48;;;;;;;;;;5025480;28;20061;-73
2021/08/04 10:18:30;;;;;;;4.07;1.23;;;;;;;;;;4991050;28;20522;-74
2021/08/04 10:21:00;;;;;;;2.92;1.30;;;;;;;;;;5007552;28;20096;-74
2021/08/04 10:23:27;;;;;;;2.85;1.23;;;;;;;;;;5018660;28;20505;-74
2021/08/04 10:25:55;;;;;;;3.67;1.45;;;;;;;;;;5025245;28;20452;-74
2021/08/04 10:28:23;;;;;;;3.30;1.48;;;;;;;;;;5024301;28;20568;-73
2021/08/04 10:30:50;;;;;;;2.60;1.30;;;;;;;;;;5023928;28;20208;-74
2021/08/04 10:33:16;;;;;;;4.00;1.33;;;;;;;;;;5023936;28;20126;-72
2021/08/04 10:35:47;;;;;;;3.13;1.35;;;;;;;;;;5015284;28;20091;-72
2021/08/04 10:38:19;;;;;;;4.10;1.40;;;;;;;;;;5024176;28;20095;-73
2021/08/04 10:40:46;;;;;;;2.80;1.35;;;;;;;;;;5023838;28;20847;-73
2021/08/04 10:43:36;;;;;;;4.28;1.30;;;;;;;;;;5018988;28;20057;-72
2021/08/04 10:46:02;;;;;;;3.05;1.20;;;;;;;;;;5022813;28;20695;-73
2021/08/04 10:48:29;;;;;;;4.13;1.50;;;;;;;;;;5055408;28;20068;-73
2021/08/04 10:51:16;;;;;;;3.00;1.25;;;;;;;;;;5025503;28;20092;-74
2021/08/04 10:54:01;;;;;;;2.92;1.40;;;;;;;;;;5024522;28;20063;-74
2021/08/04 10:56:37;;;;;;;4.32;1.15;;;;;;;;;;5019291;28;20126;-74
2021/08/04 10:59:12;;;;;;;3.40;1.35;;;;;;;;;;5021679;28;20130;-73
2021/08/04 11:01:38;;;;;;;3.33;1.40;;;;;;;;;;5023668;28;20548;-74
2021/08/04 11:04:05;;;;;;;7.30;1.42;;;;;;;;;;5025474;28;20497;-74
2021/08/04 11:06:33;;;;;;;2.67;1.27;;;;;;;;;;5024676;28;20068;-74
2021/08/04 11:09:17;;;;;;;5.63;1.48;;;;;;;;;;5016520;28;20061;-74
2021/08/04 11:11:57;;;;;;;4.68;1.30;;;;;;;;;;5013345;28;21273;-74
2021/08/04 11:14:43;;;;;;;2.80;1.40;;;;;;;;;;5022408;28;20218;-74
2021/08/04 11:17:11;;;;;;;2.40;1.20;;;;;;;;;;5023363;28;20569;-74
2021/08/04 11:19:56;;;;;;;3.67;2.10;;;;;;;;;;5023620;28;20084;-74
2021/08/04 11:22:23;;;;;;;2.60;1.40;;;;;;;;;;5028295;28;20056;-74
2021/08/04 11:25:00;;;;;;;6.30;1.85;;;;;;;;;;5020770;28;20112;-74
2021/08/04 11:27:28;;;;;;;4.13;1.50;;;;;;;;;;5023483;28;20061;-74
2021/08/04 11:29:55;;;;;;;3.72;1.45;;;;;;;;;;5024672;28;20034;-73
2021/08/04 11:32:23;;;;;;;3.55;1.42;;;;;;;;;;5018064;28;20669;-74
2021/08/04 11:34:50;;;;;;;3.40;1.27;;;;;;;;;;5022774;28;20549;-74
2021/08/04 11:37:17;;;;;;;3.78;1.48;;;;;;;;;;5023547;28;20049;-74
2021/08/04 11:40:02;;;;;;;1.92;1.10;;;;;;;;;;5020896;28;20073;-74
2021/08/04 11:42:30;;;;;;;4.88;1.30;;;;;;;;;;5021875;28;20112;-74
2021/08/04 11:45:07;;;;;;;1.90;1.38;;;;;;;;;;5023539;28;20069;-73
2021/08/04 11:47:33;;;;;;;4.00;1.40;;;;;;;;;;5020560;28;20061;-74
2021/08/04 11:50:04;;;;;;;3.65;1.50;;;;;;;;;;5020827;28;20562;-74
2021/08/04 11:52:31;;;;;;;4.00;1.77;;;;;;;;;;5020879;28;20073;-75
2021/08/04 11:55:03;;;;;;;5.30;1.40;;;;;;;;;;5023488;28;20072;-74
2021/08/04 11:57:33;;;;;;;4.63;1.40;;;;;;;;;;5022198;28;20076;-74
2021/08/04 12:00:20;;;;;;;3.40;1.67;;;;;;;;;;5021651;28;20065;-74
2021/08/04 12:02:47;;;;;;;2.15;1.30;;;;;;;;;;5021948;28;20231;-74
2021/08/04 12:21:03;;;;;;;5.88;1.30;;;;;;;;;;4933221;28;20155;-75
2021/08/04 12:23:29;;;;;;;2.15;1.10;;;;;;;;;;4928151;28;20424;-75
2021/08/04 12:26:02;;;;;;;4.60;1.42;;;;;;;;;;4945333;29;20066;-75
2021/08/04 12:28:29;;;;;;;3.13;1.25;;;;;;;;;;4941003;28;20059;-75
2021/08/04 12:30:56;;;;;;;2.67;1.20;;;;;;;;;;4945288;29;20094;-75
2021/08/04 12:33:23;;;;;;;4.50;1.40;;;;;;;;;;4945905;28;20055;-75
2021/08/04 12:38:29;;;;;;;2.75;1.35;;;;;;;;;;4945931;28;20522;-75
2021/08/04 12:40:56;;;;;;;2.30;1.40;;;;;;;;;;4949095;29;20086;-76
2021/08/04 12:43:24;;;;;;;6.13;1.35;;;;;;;;;;4947727;28;20139;-76
2021/08/04 12:45:51;;;;;;;4.45;1.30;;;;;;;;;;4934327;29;20075;-76
2021/08/04 12:48:19;;;;;;;3.55;1.25;;;;;;;;;;4930649;29;21316;-75
2021/08/04 12:50:56;;;;;;;3.10;1.50;;;;;;;;;;4946421;28;20071;-75
2021/08/04 12:53:24;;;;;;;2.60;1.20;;;;;;;;;;4944707;28;20086;-76
2021/08/04 12:56:01;;;;;;;2.58;1.27;;;;;;;;;;4931591;29;20423;-75
2021/08/04 12:58:27;;;;;;;2.95;1.52;;;;;;;;;;4948245;28;20519;-75
2021/08/04 13:00:54;;;;;;;2.58;1.40;;;;;;;;;;4949754;28;20066;-76
2021/08/04 13:03:30;;;;;;;2.15;1.27;;;;;;;;;;4948048;28;20126;-75
2021/08/04 13:05:57;;;;;;;2.10;1.13;;;;;;;;;;4949490;29;20122;-75
2021/08/04 13:08:31;;;;;;;2.10;1.20;;;;;;;;;;4946490;28;20620;-76
2021/08/04 13:10:57;;;;;;;4.53;1.45;;;;;;;;;;4948003;28;20484;-75
2021/08/04 13:13:24;;;;;;;3.05;1.30;;;;;;;;;;4948444;28;20133;-75
2021/08/04 13:15:53;;;;;;;2.05;1.20;;;;;;;;;;4942358;28;20058;-75
2021/08/04 13:18:21;;;;;;;3.47;1.25;;;;;;;;;;4939553;28;20063;-75
2021/08/04 13:20:47;;;;;;;2.67;1.38;;;;;;;;;;4914749;29;20456;-74
2021/08/04 13:23:15;;;;;;;3.88;1.30;;;;;;;;;;4927273;29;20608;-75
2021/08/04 13:25:44;;;;;;;4.15;1.15;;;;;;;;;;4928440;29;20076;-74
2021/08/04 13:28:18;;;;;;;3.08;1.30;;;;;;;;;;4921426;29;20084;-75
2021/08/04 13:30:50;;;;;;;3.30;1.30;;;;;;;;;;4925352;29;20567;-75
2021/08/04 13:33:20;;;;;;;2.25;1.20;;;;;;;;;;4925015;29;20070;-76
2021/08/04 13:35:48;;;;;;;2.15;1.25;;;;;;;;;;4922979;29;20068;-76
2021/08/04 13:38:14;;;;;;;3.42;1.20;;;;;;;;;;4923651;29;20064;-76
2021/08/04 13:40:41;;;;;;;3.42;1.35;;;;;;;;;;4917399;29;20051;-76
2021/08/04 13:43:07;;;;;;;2.20;1.30;;;;;;;;;;4932599;28;20068;-75
2021/08/04 13:45:34;;;;;;;5.40;1.30;;;;;;;;;;4920405;29;20483;-75
2021/08/04 13:48:01;;;;;;;2.40;1.20;;;;;;;;;;4918577;29;20053;-75
2021/08/04 13:50:28;;;;;;;3.15;1.48;;;;;;;;;;4921840;29;20055;-75
2021/08/04 13:52:55;;;;;;;3.88;1.30;;;;;;;;;;4927530;29;20083;-74
2021/08/04 13:55:23;;;;;;;3.08;1.30;;;;;;;;;;4915587;29;20063;-74
2021/08/04 13:57:50;;;;;;;3.10;1.08;;;;;;;;;;4927748;29;20109;-75
2021/08/04 14:00:18;;;;;;;3.55;1.30;;;;;;;;;;4925368;29;20644;-74
2021/08/04 14:02:45;;;;;;;1.85;1.10;;;;;;;;;;4918333;29;20067;-74
2021/08/04 14:05:12;;;;;;;2.53;1.30;;;;;;;;;;4919034;29;20063;-74
2021/08/04 14:07:39;;;;;;;2.80;1.13;;;;;;;;;;4920060;29;20123;-75
2021/08/04 14:10:07;;;;;;;2.28;1.10;;;;;;;;;;4925777;29;20060;-74
2021/08/04 14:12:33;;;;;;;4.25;1.40;;;;;;;;;;4904712;29;20071;-75
2021/08/04 14:15:00;;;;;;;3.00;1.13;;;;;;;;;;4912099;29;20134;-75
2021/08/04 14:17:26;;;;;;;2.70;1.20;;;;;;;;;;4917189;29;20527;-75
2021/08/04 14:19:53;;;;;;;2.55;1.45;;;;;;;;;;4921056;29;20086;-74
2021/08/04 14:22:20;;;;;;;3.03;1.30;;;;;;;;;;4919595;29;20184;-75
2021/08/04 14:24:47;;;;;;;1.90;1.15;;;;;;;;;;4918654;29;20311;-74
2021/08/04 14:27:13;;;;;;;3.45;1.17;;;;;;;;;;4916463;29;20040;-75
2021/08/04 14:29:40;;;;;;;2.10;1.10;;;;;;;;;;4921073;29;20043;-75
2021/08/04 14:32:07;;;;;;;2.25;1.10;;;;;;;;;;4921297;29;20075;-74
2021/08/04 14:34:33;;;;;;;3.40;1.30;;;;;;;;;;4923903;29;20420;-75
2021/08/04 14:37:00;;;;;;;3.33;1.67;;;;;;;;;;4920713;29;20071;-76
2021/08/04 14:39:27;;;;;;;2.35;1.35;;;;;;;;;;4919524;29;20123;-74
2021/08/04 14:41:53;;;;;;;2.35;1.10;;;;;;;;;;4915576;29;20526;-73
2021/08/04 14:44:20;;;;;;;2.60;1.40;;;;;;;;;;4918664;29;20067;-74
2021/08/04 14:46:46;;;;;;;1.88;1.10;;;;;;;;;;4921568;29;20059;-75
2021/08/04 14:49:14;;;;;;;2.25;1.40;;;;;;;;;;4920477;29;20071;-75
2021/08/04 14:51:40;;;;;;;2.55;1.10;;;;;;;;;;4924848;29;20456;-76
2021/08/04 14:54:07;;;;;;;2.53;1.25;;;;;;;;;;4927203;29;20051;-77
2021/08/04 14:56:33;;;;;;;3.67;1.33;;;;;;;;;;4924107;29;20059;-78
2021/08/04 14:59:00;;;;;;;1.30;1.10;;;;;;;;;;4922227;29;20071;-74
2021/08/04 15:01:27;;;;;;;2.35;1.30;;;;;;;;;;4917730;29;20412;-76
2021/08/04 15:03:53;;;;;;;2.53;1.33;;;;;;;;;;4925407;29;20677;-76
2021/08/04 15:06:20;;;;;;;2.53;1.40;;;;;;;;;;4919023;29;20050;-77